Terminal Aerodrome Forecast
Issued by NWS

Current Version | Previous Version | Text Only | Print | Product List | Glossary On
Versions: 1 2 3 4 5 6 7 8 9 10 11 12 13 14 15 16 17 18 19 20 21 22 23 24 25
000
FTUS43 KDLH 281733
TAFHYR
TAF
KHYR 281733Z 2818/2918 22009G16KT P6SM FEW020 BKN090
     FM290000 20006KT P6SM SCT110 BKN250
     FM291000 17002KT 6SM BR SKC
      TEMPO 2910/2914 1SM BR SCT004
     FM291400 18004KT P6SM SKC=

USA.gov is the U.S. government's official web portal to all federal, state and local government web resources and services.